createdAt,value
2022-12-08T00:00:12.668Z,33.13
2022-12-08T00:02:39.335Z,33.08
2022-12-08T00:05:24.635Z,33.00
2022-12-08T00:08:09.588Z,33.05
2022-12-08T00:10:51.289Z,33.10
2022-12-08T00:13:17.755Z,33.08
2022-12-08T00:15:44.249Z,33.16
2022-12-08T00:18:10.722Z,33.05
2022-12-08T00:20:37.172Z,33.17
2022-12-08T00:23:04.371Z,33.09
2022-12-08T00:25:31.968Z,33.13
2022-12-08T00:27:58.468Z,33.13
2022-12-08T00:30:24.928Z,33.16
2022-12-08T00:32:51.403Z,33.19
2022-12-08T00:35:17.900Z,33.19
2022-12-08T00:37:44.359Z,33.14
2022-12-08T00:40:11.029Z,33.22
2022-12-08T00:42:37.541Z,33.13
2022-12-08T00:45:04.358Z,33.10
2022-12-08T00:47:30.787Z,33.22
2022-12-08T00:49:57.241Z,33.17
2022-12-08T00:52:24.863Z,33.10
2022-12-08T00:54:51.324Z,33.15
2022-12-08T00:57:17.771Z,33.13
2022-12-08T00:59:44.226Z,33.15
2022-12-08T01:02:10.698Z,33.26
2022-12-08T01:04:38.081Z,33.12
2022-12-08T01:07:04.419Z,33.21
2022-12-08T01:09:30.874Z,33.07
2022-12-08T01:11:57.347Z,33.21
2022-12-08T01:14:23.778Z,33.09
2022-12-08T01:16:50.341Z,33.14
2022-12-08T01:19:17.678Z,33.17
2022-12-08T01:21:45.512Z,33.19
2022-12-08T01:24:14.660Z,33.22
2022-12-08T01:26:41.428Z,33.29
2022-12-08T01:29:08.699Z,33.42
2022-12-08T01:31:35.279Z,33.35
2022-12-08T01:34:01.891Z,33.23
2022-12-08T01:36:30.630Z,33.39
2022-12-08T01:38:59.988Z,33.02
2022-12-08T01:41:29.965Z,33.18
2022-12-08T01:44:00.779Z,33.22
2022-12-08T01:46:30.095Z,33.32
2022-12-08T01:49:16.835Z,33.39
2022-12-08T01:51:55.375Z,33.30
2022-12-08T01:54:25.706Z,33.26
2022-12-08T01:57:03.891Z,33.29
2022-12-08T01:59:32.966Z,33.18
2022-12-08T02:01:59.535Z,33.30
2022-12-08T02:04:26.064Z,33.26
2022-12-08T02:06:53.522Z,33.41
2022-12-08T02:09:20.083Z,33.13
2022-12-08T02:11:47.019Z,33.34
2022-12-08T02:14:14.692Z,33.27
2022-12-08T02:17:01.676Z,33.35
2022-12-08T02:20:13.198Z,33.24
2022-12-08T02:22:54.661Z,33.18
2022-12-08T02:25:57.087Z,33.29
2022-12-08T02:28:35.367Z,33.21
2022-12-08T02:31:23.644Z,33.36
2022-12-08T02:34:31.779Z,33.45
2022-12-08T02:37:16.683Z,33.30
2022-12-08T02:40:19.935Z,33.29
2022-12-08T02:42:57.763Z,33.27
2022-12-08T02:46:00.490Z,33.11
2022-12-08T02:48:29.039Z,33.35
2022-12-08T02:50:55.571Z,33.23
2022-12-08T02:53:22.068Z,33.17
2022-12-08T02:55:56.777Z,33.29
2022-12-08T02:58:35.448Z,33.15
2022-12-08T03:01:33.156Z,33.22
2022-12-08T03:04:02.451Z,33.23
2022-12-08T03:06:46.592Z,33.13
2022-12-08T03:09:30.451Z,33.21
2022-12-08T03:12:01.913Z,33.24
2022-12-08T03:14:30.436Z,33.18
2022-12-08T03:16:59.345Z,33.21
2022-12-08T03:19:31.756Z,33.17
2022-12-08T03:22:03.552Z,33.42
2022-12-08T03:24:43.485Z,33.20
2022-12-08T03:27:19.176Z,33.25
2022-12-08T03:29:47.410Z,33.31
2022-12-08T03:32:39.954Z,33.12
2022-12-08T03:35:14.030Z,33.25
2022-12-08T03:37:41.045Z,33.23
2022-12-08T03:40:10.548Z,33.23
2022-12-08T03:42:36.992Z,33.27
2022-12-08T03:45:04.663Z,33.20
2022-12-08T03:47:31.219Z,33.29
2022-12-08T03:49:57.670Z,33.21
2022-12-08T03:52:24.218Z,33.12
2022-12-08T03:54:50.707Z,33.19
2022-12-08T03:57:17.232Z,33.08
2022-12-08T03:59:43.691Z,33.22
2022-12-08T04:02:10.248Z,33.31
2022-12-08T04:04:36.729Z,33.16
2022-12-08T04:07:03.275Z,33.23
2022-12-08T04:09:29.726Z,33.30
2022-12-08T04:11:56.165Z,33.26
2022-12-08T04:14:22.628Z,33.37
2022-12-08T04:16:49.082Z,33.39
2022-12-08T04:19:15.560Z,33.26
2022-12-08T04:21:42.016Z,33.27
2022-12-08T04:24:09.291Z,32.99
2022-12-08T04:26:35.722Z,33.18
2022-12-08T04:29:02.165Z,33.17
2022-12-08T04:31:28.746Z,33.16
2022-12-08T04:33:55.266Z,33.27
2022-12-08T04:36:21.748Z,33.20
2022-12-08T04:38:48.192Z,33.25
2022-12-08T04:41:14.663Z,33.27
2022-12-08T04:43:41.660Z,33.14
2022-12-08T04:46:09.205Z,33.26
2022-12-08T04:48:38.000Z,33.14
2022-12-08T04:51:05.120Z,33.24
2022-12-08T04:53:32.424Z,33.32
2022-12-08T04:55:59.131Z,33.20
2022-12-08T04:58:25.694Z,33.22
2022-12-08T05:00:52.293Z,33.33
2022-12-08T05:03:22.530Z,33.21
2022-12-08T05:05:53.250Z,33.36
2022-12-08T05:08:19.940Z,33.34
2022-12-08T05:10:46.495Z,33.30
2022-12-08T05:13:12.946Z,33.45
2022-12-08T05:15:39.395Z,33.42
2022-12-08T05:18:06.690Z,33.32
2022-12-08T05:20:34.004Z,33.26
2022-12-08T05:23:00.520Z,33.36
2022-12-08T05:25:27.061Z,33.21
2022-12-08T05:28:06.178Z,33.28
2022-12-08T05:30:40.048Z,33.32
2022-12-08T05:33:06.491Z,33.36
2022-12-08T05:35:32.943Z,33.22
2022-12-08T05:37:59.391Z,33.26
2022-12-08T05:40:25.835Z,33.34
2022-12-08T05:42:52.979Z,33.14
2022-12-08T05:45:19.434Z,33.33
2022-12-08T05:47:45.952Z,33.19
2022-12-08T05:50:12.458Z,33.28
2022-12-08T05:52:38.932Z,33.16
2022-12-08T05:55:05.735Z,33.41
2022-12-08T05:57:32.215Z,33.26
2022-12-08T05:59:59.555Z,33.40
2022-12-08T06:02:26.588Z,33.27
2022-12-08T06:04:53.195Z,33.26
2022-12-08T06:07:19.640Z,33.21
2022-12-08T06:09:46.100Z,33.30
2022-12-08T06:12:12.820Z,33.25
2022-12-08T06:14:39.815Z,33.28
2022-12-08T06:17:06.355Z,33.29
2022-12-08T06:19:32.848Z,33.34
2022-12-08T06:21:59.295Z,33.28
2022-12-08T06:24:25.891Z,33.24
2022-12-08T06:26:52.328Z,33.21
2022-12-08T06:29:18.780Z,33.38
2022-12-08T06:31:45.375Z,33.25
2022-12-08T06:34:11.950Z,33.06
2022-12-08T06:36:38.484Z,33.25
2022-12-08T06:39:05.106Z,33.27
2022-12-08T06:41:31.559Z,33.17
2022-12-08T06:43:58.863Z,33.24
2022-12-08T06:46:25.418Z,33.13
2022-12-08T06:48:52.052Z,33.14
2022-12-08T06:51:20.911Z,33.14
2022-12-08T06:53:47.589Z,33.12
2022-12-08T06:56:16.210Z,33.08
2022-12-08T06:58:46.100Z,33.12
2022-12-08T07:01:15.467Z,33.14
2022-12-08T07:03:43.620Z,33.18
2022-12-08T07:06:16.858Z,33.16
2022-12-08T07:08:43.572Z,33.16
2022-12-08T07:11:13.224Z,33.00
2022-12-08T07:13:43.159Z,33.13
2022-12-08T07:16:10.872Z,33.05
2022-12-08T07:18:38.679Z,33.11
2022-12-08T07:21:10.927Z,33.06
2022-12-08T07:23:38.277Z,33.09
2022-12-08T07:26:05.611Z,33.08
2022-12-08T07:28:37.070Z,33.05
2022-12-08T07:31:04.390Z,32.92
2022-12-08T07:33:31.672Z,33.07
2022-12-08T07:36:02.917Z,33.19
2022-12-08T07:38:30.337Z,33.22
2022-12-08T07:40:56.734Z,33.27
2022-12-08T07:43:23.575Z,33.22
2022-12-08T07:45:50.861Z,33.16
2022-12-08T07:48:17.457Z,33.07
2022-12-08T07:50:44.659Z,33.05
2022-12-08T07:53:11.339Z,32.91
2022-12-08T07:55:44.712Z,33.25
2022-12-08T07:58:11.796Z,33.01
2022-12-08T08:00:38.411Z,33.07
2022-12-08T08:03:05.060Z,33.24
2022-12-08T08:05:31.558Z,33.11
2022-12-08T08:07:58.097Z,33.10
2022-12-08T08:10:24.687Z,32.99
2022-12-08T08:12:51.168Z,32.96
2022-12-08T08:15:19.256Z,33.21
2022-12-08T08:17:50.645Z,33.18
2022-12-08T08:20:17.963Z,33.03
2022-12-08T08:22:49.608Z,33.09
2022-12-08T08:25:17.147Z,33.01
2022-12-08T08:27:43.724Z,33.04
2022-12-08T08:30:16.592Z,33.11
2022-12-08T08:32:46.373Z,33.04
2022-12-08T08:35:12.999Z,33.15
2022-12-08T08:37:43.019Z,33.11
2022-12-08T08:40:12.530Z,33.10
2022-12-08T08:42:39.013Z,33.18
2022-12-08T08:45:05.944Z,33.04
2022-12-08T08:47:32.431Z,33.04
2022-12-08T08:49:58.887Z,32.94
2022-12-08T08:52:25.360Z,33.05
2022-12-08T08:54:51.807Z,32.97
2022-12-08T08:57:23.679Z,32.89
2022-12-08T08:59:51.951Z,32.93
2022-12-08T09:02:19.359Z,33.06
2022-12-08T09:04:46.280Z,32.91
2022-12-08T09:07:13.239Z,32.88
2022-12-08T09:09:40.383Z,33.00
2022-12-08T09:12:07.173Z,33.06
2022-12-08T09:14:34.022Z,32.85
2022-12-08T09:17:00.533Z,33.09
2022-12-08T09:19:27.078Z,33.07
2022-12-08T09:21:53.737Z,32.88
2022-12-08T09:24:20.191Z,32.88
2022-12-08T09:26:47.231Z,33.07
2022-12-08T09:29:14.708Z,32.93
2022-12-08T09:31:41.895Z,33.02
2022-12-08T09:34:10.001Z,32.92
2022-12-08T09:36:36.515Z,32.85
2022-12-08T09:39:03.436Z,32.90
2022-12-08T09:41:39.297Z,33.07
2022-12-08T09:44:38.734Z,33.03
2022-12-08T09:47:21.659Z,32.91
2022-12-08T09:49:56.725Z,33.02
2022-12-08T09:52:30.155Z,32.81
2022-12-08T09:55:02.652Z,32.91
2022-12-08T09:57:31.948Z,32.86
2022-12-08T10:00:02.928Z,32.74
2022-12-08T10:02:30.922Z,32.86
2022-12-08T10:04:59.111Z,32.83
2022-12-08T10:07:55.337Z,32.94
2022-12-08T10:10:27.566Z,32.97
2022-12-08T10:13:03.088Z,32.88
2022-12-08T10:15:51.598Z,32.97
2022-12-08T10:18:27.000Z,32.86
2022-12-08T10:20:57.497Z,32.97
2022-12-08T10:23:35.459Z,32.85
2022-12-08T10:26:06.002Z,32.77
2022-12-08T10:28:34.223Z,32.87
2022-12-08T10:31:01.093Z,32.90
2022-12-08T10:33:29.499Z,32.81
2022-12-08T10:36:03.075Z,32.82
2022-12-08T10:38:31.215Z,32.67
2022-12-08T10:41:18.364Z,32.88
2022-12-08T10:43:49.622Z,32.81
2022-12-08T10:46:20.033Z,32.75
2022-12-08T10:49:03.264Z,32.65
2022-12-08T10:51:43.313Z,32.76
2022-12-08T10:54:33.813Z,32.76
2022-12-08T10:57:00.301Z,32.82
2022-12-08T10:59:27.059Z,32.90
2022-12-08T11:01:55.675Z,32.83
2022-12-08T11:04:36.307Z,32.86
2022-12-08T11:07:06.154Z,32.71
2022-12-08T11:09:36.765Z,32.76
2022-12-08T11:12:14.967Z,32.78
2022-12-08T11:14:44.211Z,32.78
2022-12-08T11:17:14.717Z,32.76
2022-12-08T11:20:03.213Z,32.86
2022-12-08T11:22:32.440Z,32.67
2022-12-08T11:25:08.235Z,32.79
2022-12-08T11:27:38.812Z,32.87
2022-12-08T11:30:23.985Z,32.89
2022-12-08T11:33:01.427Z,32.86
2022-12-08T11:35:33.836Z,32.76
2022-12-08T11:38:21.467Z,32.69
2022-12-08T11:40:52.473Z,32.84
2022-12-08T11:43:28.482Z,32.72
2022-12-08T11:46:01.997Z,32.88
2022-12-08T11:48:52.362Z,32.84
2022-12-08T11:51:28.226Z,32.75
2022-12-08T11:54:15.737Z,32.83
2022-12-08T11:56:49.379Z,32.79
2022-12-08T11:59:26.372Z,32.82
2022-12-08T12:01:53.343Z,32.93
2022-12-08T12:04:23.235Z,32.88
2022-12-08T12:07:26.206Z,32.88
2022-12-08T12:10:02.449Z,32.78
2022-12-08T12:13:07.518Z,32.85
2022-12-08T12:15:42.900Z,32.85
2022-12-08T12:18:39.027Z,32.95
2022-12-08T12:21:19.274Z,32.93
2022-12-08T12:23:57.612Z,32.95
2022-12-08T12:26:28.112Z,32.94
2022-12-08T12:29:02.300Z,32.72
2022-12-08T12:31:33.008Z,32.85
2022-12-08T12:34:15.299Z,32.87
2022-12-08T12:36:55.894Z,32.82
2022-12-08T12:39:27.355Z,32.80
2022-12-08T12:42:01.728Z,32.97
2022-12-08T12:44:28.140Z,32.79
2022-12-08T12:46:56.958Z,32.91
2022-12-08T12:49:43.745Z,32.97
2022-12-08T12:52:10.190Z,32.91
2022-12-08T12:54:36.675Z,32.83
2022-12-08T12:57:09.227Z,32.96
2022-12-08T12:59:43.073Z,32.86
2022-12-08T13:02:31.244Z,32.85
2022-12-08T13:05:01.708Z,32.95
2022-12-08T13:07:41.076Z,32.92
2022-12-08T13:10:16.336Z,32.98
2022-12-08T13:12:44.787Z,32.92
2022-12-08T13:15:22.163Z,32.95
2022-12-08T13:17:49.345Z,32.95
2022-12-08T13:20:22.844Z,32.97
2022-12-08T13:23:02.045Z,33.04
2022-12-08T13:25:40.638Z,33.02
2022-12-08T13:28:16.351Z,32.99
2022-12-08T13:30:50.725Z,33.02
2022-12-08T13:33:28.362Z,32.87
2022-12-08T13:36:21.313Z,33.04
2022-12-08T13:38:53.996Z,33.05
2022-12-08T13:41:24.353Z,32.82
2022-12-08T13:47:33.316Z,32.85
2022-12-08T13:59:07.215Z,32.89
2022-12-08T14:01:42.050Z,32.89
2022-12-08T14:07:04.002Z,32.99
2022-12-08T14:09:37.223Z,32.99
2022-12-08T14:12:25.529Z,32.86
2022-12-08T14:15:04.848Z,32.97
2022-12-08T14:17:31.806Z,32.99
2022-12-08T14:20:01.960Z,32.91
2022-12-08T14:22:36.970Z,32.93
2022-12-08T14:25:05.854Z,33.04
2022-12-08T14:27:35.231Z,32.83
2022-12-08T14:30:07.512Z,33.05
2022-12-08T14:32:44.395Z,33.12
2022-12-08T14:35:10.797Z,32.96
2022-12-08T14:37:46.354Z,32.98
2022-12-08T14:40:23.069Z,32.81
2022-12-08T14:43:15.520Z,32.91
2022-12-08T14:45:45.030Z,32.95
2022-12-08T14:48:38.613Z,33.00
2022-12-08T14:51:23.550Z,32.85
2022-12-08T14:54:13.295Z,32.97
2022-12-08T14:56:47.635Z,32.82
2022-12-08T14:59:30.325Z,32.87
2022-12-08T15:02:09.030Z,32.81
2022-12-08T15:04:38.775Z,32.79
2022-12-08T15:07:11.996Z,32.83
2022-12-08T15:09:41.800Z,32.85
2022-12-08T15:12:14.332Z,32.83
2022-12-08T15:14:43.450Z,32.79
2022-12-08T15:17:29.815Z,32.87
2022-12-08T15:19:57.260Z,32.95
2022-12-08T15:22:24.424Z,32.81
2022-12-08T15:24:50.856Z,32.86
2022-12-08T15:27:19.640Z,32.87
2022-12-08T15:29:49.138Z,32.80
2022-12-08T15:32:23.027Z,32.76
2022-12-08T15:34:50.292Z,32.75
2022-12-08T15:37:22.201Z,32.74
2022-12-08T15:39:49.521Z,32.78
2022-12-08T15:42:15.954Z,32.74
2022-12-08T15:44:43.076Z,32.62
2022-12-08T15:47:19.231Z,32.78
2022-12-08T15:49:47.195Z,32.61
2022-12-08T15:52:19.804Z,32.66
2022-12-08T15:54:46.378Z,32.81
2022-12-08T15:58:24.871Z,32.81
2022-12-08T16:00:51.330Z,32.67
2022-12-08T16:09:23.098Z,32.72
2022-12-08T16:12:09.940Z,32.76
2022-12-08T16:17:25.132Z,32.76
2022-12-08T16:19:51.983Z,32.78
2022-12-08T16:22:52.792Z,32.78
2022-12-08T16:25:19.503Z,32.62
2022-12-08T16:30:34.516Z,32.67
2022-12-08T16:33:01.618Z,32.70
2022-12-08T16:35:28.461Z,32.71
2022-12-08T16:37:55.003Z,32.67
2022-12-08T16:40:21.622Z,32.67
2022-12-08T16:42:50.050Z,32.73
2022-12-08T16:45:16.765Z,32.84
2022-12-08T16:48:03.533Z,32.70
2022-12-08T16:50:35.033Z,32.81
2022-12-08T16:53:07.078Z,32.69
2022-12-08T16:55:34.321Z,32.60
2022-12-08T16:58:01.231Z,32.38
2022-12-08T17:00:29.267Z,32.81
2022-12-08T17:02:56.074Z,32.63
2022-12-08T17:05:24.562Z,32.56
2022-12-08T17:07:52.423Z,32.66
2022-12-08T17:10:22.934Z,32.59
2022-12-08T17:12:50.312Z,32.63
2022-12-08T17:15:18.459Z,32.73
2022-12-08T17:17:44.956Z,32.49
2022-12-08T17:20:17.133Z,32.64
2022-12-08T17:22:44.197Z,32.59
2022-12-08T17:25:11.264Z,32.65
2022-12-08T17:27:38.357Z,32.69
2022-12-08T17:30:06.870Z,32.65
2022-12-08T17:32:33.545Z,32.71
2022-12-08T17:35:00.090Z,32.53
2022-12-08T17:37:26.608Z,32.68
2022-12-08T17:39:53.164Z,32.72
2022-12-08T17:42:19.687Z,32.65
2022-12-08T17:44:46.688Z,32.66
2022-12-08T17:47:13.196Z,32.63
2022-12-08T17:49:39.652Z,32.49
2022-12-08T17:52:08.927Z,32.72
2022-12-08T17:54:36.440Z,32.65
2022-12-08T17:57:03.517Z,32.59
2022-12-08T17:59:30.795Z,32.70
2022-12-08T18:01:58.255Z,32.49
2022-12-08T18:04:26.088Z,32.52
2022-12-08T18:06:52.596Z,32.61
2022-12-08T18:09:20.295Z,32.57
2022-12-08T18:11:46.926Z,32.49
2022-12-08T18:14:14.775Z,32.67
2022-12-08T18:16:46.394Z,32.72
2022-12-08T18:19:13.931Z,32.67
2022-12-08T18:21:41.664Z,32.53
2022-12-08T18:24:09.431Z,32.69
2022-12-08T18:26:36.142Z,32.68
2022-12-08T18:29:02.701Z,32.50
2022-12-08T18:31:29.186Z,32.57
2022-12-08T18:33:55.698Z,32.61
2022-12-08T18:36:24.332Z,32.73
2022-12-08T18:38:51.968Z,32.53
2022-12-08T18:41:24.511Z,32.70
2022-12-08T18:43:51.699Z,32.55
2022-12-08T18:46:18.239Z,32.73
2022-12-08T18:48:48.227Z,32.62
2022-12-08T18:51:17.133Z,32.57
2022-12-08T18:53:44.858Z,32.78
2022-12-08T18:56:26.277Z,32.62
2022-12-08T18:58:58.458Z,32.61
2022-12-08T19:01:28.008Z,32.40
2022-12-08T19:04:20.009Z,32.55
2022-12-08T19:06:41.169Z,32.56
2022-12-08T19:09:10.699Z,32.62
2022-12-08T19:11:37.160Z,32.63
2022-12-08T19:14:03.980Z,32.72
2022-12-08T19:16:30.885Z,32.36
2022-12-08T19:18:57.393Z,32.47
2022-12-08T19:21:24.715Z,32.61
2022-12-08T19:23:52.715Z,32.54
2022-12-08T19:26:19.703Z,32.42
2022-12-08T19:28:46.168Z,32.46
2022-12-08T19:31:12.709Z,32.56
2022-12-08T19:33:39.375Z,32.53
2022-12-08T19:36:13.876Z,32.39
2022-12-08T19:38:59.224Z,32.75
2022-12-08T19:41:44.652Z,32.50
2022-12-08T19:44:34.214Z,32.46
2022-12-08T19:47:01.601Z,32.54
2022-12-08T19:49:28.375Z,32.53
2022-12-08T19:51:54.979Z,32.39
2022-12-08T19:54:21.475Z,32.46
2022-12-08T19:56:48.013Z,32.53
2022-12-08T19:59:15.733Z,32.36
2022-12-08T20:01:44.026Z,32.47
2022-12-08T20:04:14.351Z,32.42
2022-12-08T20:06:40.873Z,32.36
2022-12-08T20:09:08.129Z,32.45
2022-12-08T20:11:34.587Z,32.40
2022-12-08T20:14:01.102Z,32.32
2022-12-08T20:16:27.677Z,32.49
2022-12-08T20:18:54.232Z,32.45
2022-12-08T20:21:21.554Z,32.35
2022-12-08T20:23:49.716Z,32.41
2022-12-08T20:26:18.096Z,32.42
2022-12-08T20:28:44.970Z,32.47
2022-12-08T20:31:25.579Z,32.33
2022-12-08T20:33:52.320Z,32.41
2022-12-08T20:36:20.609Z,32.38
2022-12-08T20:38:48.824Z,32.38
2022-12-08T20:41:16.168Z,32.73
2022-12-08T20:43:44.114Z,32.50
2022-12-08T20:46:12.983Z,32.35
2022-12-08T20:48:39.709Z,32.44
2022-12-08T20:51:06.461Z,32.26
2022-12-08T20:53:33.048Z,32.57
2022-12-08T20:55:59.561Z,32.44
2022-12-08T20:58:26.081Z,32.35
2022-12-08T21:00:52.718Z,32.51
2022-12-08T21:03:19.381Z,32.25
2022-12-08T21:05:51.022Z,32.31
2022-12-08T21:08:19.683Z,32.17
2022-12-08T21:10:53.875Z,32.37
2022-12-08T21:13:20.888Z,32.41
2022-12-08T21:15:47.614Z,32.33
2022-12-08T21:18:16.226Z,32.28
2022-12-08T21:20:43.773Z,32.31
2022-12-08T21:23:11.366Z,32.53
2022-12-08T21:25:42.330Z,32.39
2022-12-08T21:28:09.366Z,32.38
2022-12-08T21:30:35.993Z,32.34
2022-12-08T21:33:02.762Z,32.06
2022-12-08T21:35:29.436Z,32.35
2022-12-08T21:37:55.932Z,32.36
2022-12-08T21:40:22.576Z,32.33
2022-12-08T21:42:49.294Z,32.37
2022-12-08T21:45:17.677Z,32.36
2022-12-08T21:47:45.701Z,32.35
2022-12-08T21:50:13.061Z,32.31
2022-12-08T21:52:41.457Z,32.36
2022-12-08T21:55:09.021Z,32.26
2022-12-08T21:57:35.652Z,32.39
2022-12-08T22:00:02.392Z,32.44
2022-12-08T22:02:29.376Z,32.36
2022-12-08T22:04:56.104Z,32.23
2022-12-08T22:07:22.806Z,32.41
2022-12-08T22:09:49.444Z,32.43
2022-12-08T22:12:16.900Z,32.28
2022-12-08T22:14:44.087Z,32.32
2022-12-08T22:17:11.167Z,32.32
2022-12-08T22:19:37.932Z,32.35
2022-12-08T22:22:04.396Z,32.21
2022-12-08T22:24:31.296Z,32.39
2022-12-08T22:26:57.934Z,32.42
2022-12-08T22:29:24.534Z,32.38
2022-12-08T22:31:51.092Z,32.39
2022-12-08T22:34:17.646Z,32.24
2022-12-08T22:36:44.434Z,32.32
2022-12-08T22:39:11.068Z,32.41
2022-12-08T22:41:37.731Z,32.24
2022-12-08T22:44:07.492Z,32.07
2022-12-08T22:46:34.257Z,32.31
2022-12-08T22:49:00.843Z,32.27
2022-12-08T22:51:27.358Z,32.32
2022-12-08T22:53:53.836Z,32.22
2022-12-08T22:56:20.347Z,32.37
2022-12-08T22:58:47.295Z,32.31
2022-12-08T23:01:29.573Z,32.26
2022-12-08T23:03:57.563Z,32.28
2022-12-08T23:06:25.729Z,32.29
2022-12-08T23:08:52.390Z,32.34
2022-12-08T23:11:21.415Z,32.26
2022-12-08T23:13:48.197Z,32.18
2022-12-08T23:16:15.098Z,32.31
2022-12-08T23:18:44.470Z,32.28
2022-12-08T23:21:13.845Z,32.19
2022-12-08T23:23:40.642Z,32.11
2022-12-08T23:26:22.379Z,32.17
2022-12-08T23:28:49.275Z,32.29
2022-12-08T23:31:16.208Z,32.20
2022-12-08T23:33:42.844Z,32.20
2022-12-08T23:36:11.011Z,32.34
2022-12-08T23:38:38.052Z,32.21
2022-12-08T23:41:06.869Z,32.29
2022-12-08T23:43:34.238Z,32.25
2022-12-08T23:46:00.864Z,32.20
2022-12-08T23:48:28.824Z,32.28
2022-12-08T23:50:57.041Z,32.21
2022-12-08T23:53:23.953Z,32.22
2022-12-08T23:55:50.614Z,32.28
2022-12-08T23:58:17.201Z,32.10
